createdAt,value
2022-11-30T00:01:58.046Z,43.15
2022-11-30T00:04:27.517Z,46.17
2022-11-30T00:06:57.362Z,50.03
2022-11-30T00:09:25.681Z,47.70
2022-11-30T00:11:55.103Z,43.50
2022-11-30T00:14:23.498Z,43.42
2022-11-30T00:16:52.020Z,48.50
2022-11-30T00:19:20.480Z,44.72
2022-11-30T00:21:49.151Z,46.83
2022-11-30T00:24:17.492Z,47.35
2022-11-30T00:26:45.872Z,50.88
2022-11-30T00:29:14.228Z,51.50
2022-11-30T00:31:42.580Z,46.58
2022-11-30T00:34:11.020Z,48.70
2022-11-30T00:36:39.524Z,44.83
2022-11-30T00:39:08.440Z,53.38
2022-11-30T00:41:36.820Z,48.30
2022-11-30T00:44:05.426Z,42.80
2022-11-30T00:46:33.973Z,48.63
2022-11-30T00:49:02.424Z,47.92
2022-11-30T00:51:30.772Z,43.65
2022-11-30T00:53:59.187Z,45.92
2022-11-30T00:56:27.608Z,46.13
2022-11-30T00:58:55.926Z,47.40
2022-11-30T01:01:24.422Z,45.50
2022-11-30T01:03:52.904Z,49.88
2022-11-30T01:06:21.327Z,45.03
2022-11-30T01:08:49.940Z,50.28
2022-11-30T01:11:23.935Z,47.38
2022-11-30T01:13:52.868Z,46.45
2022-11-30T01:16:33.535Z,51.75
2022-11-30T01:19:02.264Z,45.70
2022-11-30T01:21:30.831Z,53.13
2022-11-30T01:23:59.232Z,48.30
2022-11-30T01:26:27.916Z,45.55
2022-11-30T01:28:56.584Z,48.15
2022-11-30T01:31:25.199Z,45.97
2022-11-30T01:33:55.503Z,48.25
2022-11-30T01:36:26.067Z,47.65
2022-11-30T01:38:57.153Z,45.60
2022-11-30T01:41:31.594Z,42.20
2022-11-30T01:44:06.019Z,41.85
2022-11-30T01:46:40.372Z,45.92
2022-11-30T01:49:08.657Z,40.40
2022-11-30T01:51:48.128Z,39.63
2022-11-30T01:54:22.539Z,37.83
2022-11-30T01:56:57.198Z,41.58
2022-11-30T01:59:25.920Z,39.05
2022-11-30T02:01:55.403Z,43.67
2022-11-30T02:04:28.431Z,41.38
2022-11-30T02:06:58.356Z,37.67
2022-11-30T02:09:28.857Z,34.90
2022-11-30T02:11:57.343Z,38.38
2022-11-30T02:14:36.748Z,41.50
2022-11-30T02:17:28.307Z,38.25
2022-11-30T02:20:15.732Z,32.42
2022-11-30T02:22:58.015Z,34.65
2022-11-30T02:25:35.538Z,40.53
2022-11-30T02:28:25.716Z,37.20
2022-11-30T02:30:56.638Z,36.72
2022-11-30T02:33:29.709Z,35.05
2022-11-30T02:35:59.467Z,35.65
2022-11-30T02:38:29.222Z,30.25
2022-11-30T02:40:57.625Z,33.05
2022-11-30T02:43:30.491Z,27.90
2022-11-30T02:46:11.415Z,29.67
2022-11-30T02:49:10.866Z,28.77
2022-11-30T02:51:41.751Z,26.05
2022-11-30T02:54:10.356Z,26.73
2022-11-30T02:56:38.718Z,27.55
2022-11-30T02:59:07.149Z,26.83
2022-11-30T03:01:36.505Z,24.75
2022-11-30T03:04:05.070Z,25.30
2022-11-30T03:06:33.459Z,27.25
2022-11-30T03:09:02.201Z,25.08
2022-11-30T03:11:31.693Z,24.15
2022-11-30T03:14:00.380Z,23.08
2022-11-30T03:16:28.910Z,22.00
2022-11-30T03:18:58.825Z,21.58
2022-11-30T03:21:28.381Z,21.60
2022-11-30T03:23:56.791Z,24.80
2022-11-30T03:26:25.209Z,24.00
2022-11-30T03:28:53.681Z,24.48
2022-11-30T03:31:23.350Z,22.45
2022-11-30T03:33:51.927Z,22.25
2022-11-30T03:36:20.456Z,25.73
2022-11-30T03:38:49.103Z,22.38
2022-11-30T03:41:17.934Z,24.90
2022-11-30T03:43:47.195Z,22.92
2022-11-30T03:46:16.201Z,19.83
2022-11-30T03:48:44.745Z,23.80
2022-11-30T03:51:13.726Z,20.05
2022-11-30T03:53:42.434Z,18.60
2022-11-30T03:58:57.217Z,19.55
2022-11-30T04:01:26.594Z,21.40
2022-11-30T04:03:56.156Z,19.23
2022-11-30T04:06:24.838Z,18.58
2022-11-30T04:08:53.363Z,20.45
2022-11-30T04:11:21.750Z,19.23
2022-11-30T04:13:50.235Z,17.33
2022-11-30T04:16:18.723Z,19.42
2022-11-30T04:18:47.254Z,20.63
2022-11-30T04:21:15.682Z,21.10
2022-11-30T04:23:44.248Z,18.08
2022-11-30T04:26:14.369Z,19.65
2022-11-30T04:28:43.518Z,20.40
2022-11-30T04:31:12.506Z,21.38
2022-11-30T04:33:41.081Z,20.63
2022-11-30T04:36:17.757Z,20.90
2022-11-30T04:38:47.303Z,23.48
2022-11-30T04:41:15.696Z,20.63
2022-11-30T04:43:44.296Z,23.17
2022-11-30T04:46:12.892Z,25.52
2022-11-30T04:48:41.285Z,22.27
2022-11-30T04:51:09.851Z,22.25
2022-11-30T04:53:38.915Z,23.58
2022-11-30T04:56:09.088Z,20.95
2022-11-30T04:58:38.889Z,19.98
2022-11-30T05:01:07.690Z,21.33
2022-11-30T05:03:36.482Z,20.58
2022-11-30T05:06:05.073Z,23.15
2022-11-30T05:08:33.532Z,23.52
2022-11-30T05:11:02.040Z,21.48
2022-11-30T05:13:30.570Z,22.80
2022-11-30T05:16:00.076Z,21.23
2022-11-30T05:18:29.372Z,20.02
2022-11-30T05:20:57.743Z,19.02
2022-11-30T05:23:26.175Z,20.25
2022-11-30T05:25:54.943Z,21.77
2022-11-30T05:28:23.394Z,21.20
2022-11-30T05:30:51.852Z,19.08
2022-11-30T05:33:20.283Z,21.67
2022-11-30T05:35:48.756Z,20.70
2022-11-30T05:38:17.367Z,19.50
2022-11-30T05:40:45.856Z,20.70
2022-11-30T05:43:14.453Z,21.20
2022-11-30T05:45:42.943Z,24.40
2022-11-30T05:48:11.389Z,23.27
2022-11-30T05:50:39.835Z,21.63
2022-11-30T05:53:08.262Z,20.00
2022-11-30T05:55:36.811Z,20.30
2022-11-30T05:58:05.681Z,23.30
2022-11-30T06:00:34.149Z,20.13
2022-11-30T06:03:02.963Z,22.17
2022-11-30T06:05:34.536Z,22.83
2022-11-30T06:08:03.073Z,23.40
2022-11-30T06:10:31.656Z,20.55
2022-11-30T06:13:06.598Z,24.48
2022-11-30T06:15:36.987Z,20.58
2022-11-30T06:18:06.557Z,21.05
2022-11-30T06:20:35.089Z,19.77
2022-11-30T06:23:04.990Z,22.10
2022-11-30T06:25:33.559Z,23.42
2022-11-30T06:28:02.206Z,22.95
2022-11-30T06:30:30.768Z,24.52
2022-11-30T06:32:59.178Z,23.45
2022-11-30T06:35:27.736Z,22.95
2022-11-30T06:37:57.369Z,22.02
2022-11-30T06:40:26.057Z,24.13
2022-11-30T06:42:54.884Z,22.95
2022-11-30T06:45:23.350Z,20.77
2022-11-30T06:47:55.062Z,22.75
2022-11-30T06:50:23.890Z,25.75
2022-11-30T06:52:52.381Z,27.10
2022-11-30T06:55:20.753Z,26.58
2022-11-30T06:57:49.650Z,23.27
2022-11-30T07:00:18.975Z,24.02
2022-11-30T07:02:47.497Z,22.05
2022-11-30T07:05:15.913Z,22.67
2022-11-30T07:07:44.352Z,22.48
2022-11-30T07:10:17.156Z,24.83
2022-11-30T07:12:49.054Z,23.50
2022-11-30T07:15:17.920Z,25.75
2022-11-30T07:17:46.422Z,23.80
2022-11-30T07:20:14.942Z,22.33
2022-11-30T07:22:43.292Z,25.40
2022-11-30T07:25:30.185Z,22.20
2022-11-30T07:27:58.606Z,24.80
2022-11-30T07:30:27.086Z,22.50
2022-11-30T07:32:55.495Z,27.20
2022-11-30T07:35:23.929Z,22.20
2022-11-30T07:37:52.386Z,24.33
2022-11-30T07:40:20.738Z,21.60
2022-11-30T07:42:55.383Z,23.65
2022-11-30T07:45:23.912Z,25.30
2022-11-30T07:47:52.309Z,24.52
2022-11-30T07:50:20.777Z,26.63
2022-11-30T07:52:49.215Z,23.30
2022-11-30T07:55:19.920Z,23.05
2022-11-30T07:57:48.648Z,22.60
2022-11-30T08:00:17.127Z,21.45
2022-11-30T08:02:45.540Z,22.58
2022-11-30T08:05:13.968Z,24.52
2022-11-30T08:07:42.480Z,23.60
2022-11-30T08:10:12.258Z,24.55
2022-11-30T08:12:40.614Z,20.20
2022-11-30T08:15:19.749Z,24.33
2022-11-30T08:17:52.040Z,21.48
2022-11-30T08:20:21.459Z,21.83
2022-11-30T08:22:51.823Z,27.70
2022-11-30T08:25:20.291Z,23.15
2022-11-30T08:27:48.725Z,24.27
2022-11-30T08:30:17.422Z,25.58
2022-11-30T08:32:45.950Z,24.95
2022-11-30T08:35:14.445Z,26.42
2022-11-30T08:37:43.019Z,23.60
2022-11-30T08:40:11.776Z,22.25
2022-11-30T08:42:40.205Z,23.45
2022-11-30T08:45:09.071Z,20.85
2022-11-30T08:47:37.484Z,25.02
2022-11-30T08:50:06.463Z,26.15
2022-11-30T08:52:34.918Z,26.08
2022-11-30T08:55:03.449Z,25.38
2022-11-30T08:57:32.019Z,23.90
2022-11-30T09:00:00.509Z,25.67
2022-11-30T09:02:29.038Z,26.25
2022-11-30T09:04:57.504Z,26.15
2022-11-30T09:07:26.083Z,28.42
2022-11-30T09:09:54.491Z,27.92
2022-11-30T09:12:22.896Z,29.02
2022-11-30T09:14:57.771Z,26.55
2022-11-30T09:17:26.909Z,25.70
2022-11-30T09:19:56.481Z,30.88
2022-11-30T09:22:25.398Z,24.20
2022-11-30T09:24:54.928Z,26.40
2022-11-30T09:27:24.230Z,28.42
2022-11-30T09:29:52.762Z,27.15
2022-11-30T09:32:21.229Z,26.50
2022-11-30T09:34:50.826Z,24.83
2022-11-30T09:37:19.680Z,25.38
2022-11-30T09:39:48.117Z,25.00
2022-11-30T09:42:42.340Z,25.05
2022-11-30T09:45:19.098Z,26.00
2022-11-30T09:48:14.024Z,22.58
2022-11-30T09:50:47.229Z,26.15
2022-11-30T09:53:27.787Z,23.95
2022-11-30T09:59:03.435Z,21.88
2022-11-30T10:01:33.104Z,21.42
2022-11-30T10:04:02.565Z,23.48
2022-11-30T10:06:51.222Z,27.10
2022-11-30T10:13:14.771Z,24.83
2022-11-30T10:16:03.044Z,26.05
2022-11-30T10:18:47.621Z,26.67
2022-11-30T10:21:36.978Z,24.33
2022-11-30T10:24:35.802Z,23.02
2022-11-30T10:27:41.320Z,27.17
2022-11-30T10:30:19.116Z,21.52
2022-11-30T10:33:00.154Z,25.73
2022-11-30T10:35:38.819Z,22.73
2022-11-30T10:38:29.509Z,21.13
2022-11-30T10:41:09.921Z,22.10
2022-11-30T10:44:04.893Z,22.33
2022-11-30T10:46:38.560Z,21.45
2022-11-30T10:49:14.343Z,22.67
2022-11-30T10:51:50.414Z,20.25
2022-11-30T10:54:21.909Z,20.80
2022-11-30T10:56:50.327Z,20.80
2022-11-30T10:59:24.161Z,19.48
2022-11-30T11:01:53.758Z,17.38
2022-11-30T11:04:25.158Z,17.10
2022-11-30T11:06:57.698Z,16.05
2022-11-30T11:09:46.783Z,16.83
2022-11-30T11:12:24.508Z,22.65
2022-11-30T11:15:08.906Z,18.80
2022-11-30T11:17:37.457Z,15.40
2022-11-30T11:20:31.781Z,15.95
2022-11-30T11:23:00.954Z,18.45
2022-11-30T11:25:37.400Z,14.90
2022-11-30T11:28:15.358Z,14.82
2022-11-30T11:30:44.039Z,14.98
2022-11-30T11:33:12.498Z,13.73
2022-11-30T11:35:43.514Z,17.27
2022-11-30T11:38:41.082Z,16.63
2022-11-30T11:41:16.937Z,17.58
2022-11-30T11:44:04.432Z,19.42
2022-11-30T11:46:36.343Z,17.25
2022-11-30T11:49:20.807Z,14.48
2022-11-30T11:52:03.341Z,18.63
2022-11-30T11:54:39.351Z,18.60
2022-11-30T11:57:14.749Z,18.10
2022-11-30T12:00:05.458Z,20.15
2022-11-30T12:03:22.376Z,20.77
2022-11-30T12:05:58.435Z,21.52
2022-11-30T12:08:43.317Z,19.58
2022-11-30T12:11:18.169Z,21.77
2022-11-30T12:13:47.089Z,18.33
2022-11-30T12:16:32.092Z,23.15
2022-11-30T12:19:08.689Z,22.98
2022-11-30T12:22:27.690Z,21.80
2022-11-30T12:25:14.840Z,22.88
2022-11-30T12:28:18.328Z,20.90
2022-11-30T12:30:56.617Z,21.55
2022-11-30T12:34:02.961Z,25.23
2022-11-30T12:36:37.470Z,22.27
2022-11-30T12:39:10.749Z,21.77
2022-11-30T12:41:47.705Z,26.00
2022-11-30T12:44:40.290Z,26.95
2022-11-30T12:47:26.612Z,20.05
2022-11-30T12:50:10.423Z,22.05
2022-11-30T12:52:54.047Z,21.30
2022-11-30T12:55:57.990Z,19.27
2022-11-30T12:58:59.311Z,20.33
2022-11-30T13:01:41.475Z,20.35
2022-11-30T13:04:27.855Z,17.02
2022-11-30T13:07:01.193Z,19.33
2022-11-30T13:10:00.545Z,16.48
2022-11-30T13:12:36.786Z,17.60
2022-11-30T13:15:15.723Z,20.13
2022-11-30T13:17:46.467Z,17.27
2022-11-30T13:20:28.186Z,16.88
2022-11-30T13:23:03.064Z,16.52
2022-11-30T13:26:09.420Z,14.82
2022-11-30T13:28:53.060Z,17.33
2022-11-30T13:31:34.229Z,16.27
2022-11-30T13:34:02.910Z,16.25
2022-11-30T13:36:39.398Z,21.08
2022-11-30T13:39:14.497Z,15.43
2022-11-30T13:42:02.900Z,17.45
2022-11-30T13:44:31.655Z,19.23
2022-11-30T13:47:06.327Z,19.70
2022-11-30T13:49:36.595Z,17.17
2022-11-30T13:52:23.418Z,17.63
2022-11-30T13:54:54.563Z,15.23
2022-11-30T13:57:29.177Z,17.08
2022-11-30T14:00:02.740Z,20.67
2022-11-30T14:02:34.493Z,18.55
2022-11-30T14:05:22.693Z,15.13
2022-11-30T14:08:00.123Z,15.13
2022-11-30T14:10:39.016Z,18.08
2022-11-30T14:13:10.487Z,17.33
2022-11-30T14:15:38.887Z,18.13
2022-11-30T14:18:10.373Z,14.52
2022-11-30T14:20:51.715Z,17.23
2022-11-30T14:23:40.793Z,15.75
2022-11-30T14:26:12.791Z,16.50
2022-11-30T14:28:50.126Z,17.05
2022-11-30T14:31:24.127Z,14.40
2022-11-30T14:34:20.445Z,13.73
2022-11-30T14:36:58.249Z,17.20
2022-11-30T14:39:41.878Z,15.25
2022-11-30T14:42:23.796Z,19.25
2022-11-30T14:44:53.267Z,17.27
2022-11-30T14:47:24.509Z,16.98
2022-11-30T14:49:56.244Z,16.67
2022-11-30T14:52:42.963Z,16.00
2022-11-30T14:55:31.217Z,17.45
2022-11-30T14:58:16.674Z,16.88
2022-11-30T15:00:46.748Z,17.38
2022-11-30T15:03:24.928Z,15.13
2022-11-30T15:05:56.899Z,17.30
2022-11-30T15:08:51.901Z,17.55
2022-11-30T15:11:21.394Z,17.85
2022-11-30T15:13:53.855Z,16.35
2022-11-30T15:16:25.368Z,19.25
2022-11-30T15:18:56.578Z,16.65
2022-11-30T15:21:30.741Z,17.77
2022-11-30T15:24:01.425Z,15.48
2022-11-30T15:27:08.777Z,20.15
2022-11-30T15:29:59.736Z,14.57
2022-11-30T15:32:29.085Z,16.70
2022-11-30T15:35:02.057Z,18.00
2022-11-30T15:37:33.483Z,20.25
2022-11-30T15:40:05.532Z,17.63
2022-11-30T15:42:40.303Z,15.82
2022-11-30T15:45:31.858Z,19.45
2022-11-30T15:48:00.906Z,14.88
2022-11-30T15:50:29.238Z,17.13
2022-11-30T15:53:03.881Z,16.40
2022-11-30T15:55:41.361Z,15.35
2022-11-30T15:58:47.205Z,16.58
2022-11-30T16:01:15.808Z,15.15
2022-11-30T16:03:59.565Z,14.00
2022-11-30T16:06:29.733Z,13.30
2022-11-30T16:09:03.066Z,11.98
2022-11-30T16:11:33.358Z,7.90
2022-11-30T16:14:02.008Z,7.55
2022-11-30T16:16:33.042Z,8.85
2022-11-30T16:19:01.578Z,9.38
2022-11-30T16:21:30.093Z,7.55
2022-11-30T16:23:58.558Z,8.65
2022-11-30T16:26:50.033Z,8.43
2022-11-30T16:29:15.490Z,8.20
2022-11-30T16:31:43.974Z,8.95
2022-11-30T16:34:13.477Z,14.02
2022-11-30T16:36:41.881Z,9.60
2022-11-30T16:39:12.787Z,8.35
2022-11-30T16:41:41.257Z,8.02
2022-11-30T16:44:14.203Z,10.05
2022-11-30T16:46:42.794Z,7.82
2022-11-30T16:49:11.397Z,26.67
2022-11-30T16:51:41.781Z,10.55
2022-11-30T16:54:13.925Z,9.32
2022-11-30T16:56:43.891Z,8.35
2022-11-30T16:59:16.652Z,11.25
2022-11-30T17:01:48.396Z,15.43
2022-11-30T17:04:20.707Z,9.83
2022-11-30T17:09:21.229Z,8.80
2022-11-30T17:11:50.945Z,9.05
2022-11-30T17:14:21.035Z,11.90
2022-11-30T17:16:49.665Z,8.70
2022-11-30T17:19:18.235Z,13.10
2022-11-30T17:21:48.316Z,10.95
2022-11-30T17:24:16.764Z,10.10
2022-11-30T17:26:45.202Z,11.43
2022-11-30T17:29:13.614Z,11.82
2022-11-30T17:31:42.058Z,15.38
2022-11-30T17:34:10.504Z,11.75
2022-11-30T17:36:38.925Z,13.80
2022-11-30T17:39:08.197Z,14.68
2022-11-30T17:41:36.607Z,13.88
2022-11-30T17:44:05.003Z,13.25
2022-11-30T17:46:33.440Z,13.75
2022-11-30T17:49:01.833Z,15.88
2022-11-30T17:51:30.825Z,16.17
2022-11-30T17:53:59.387Z,16.10
2022-11-30T17:56:27.772Z,18.80
2022-11-30T17:58:56.164Z,14.25
2022-11-30T18:01:26.902Z,16.15
2022-11-30T18:03:56.166Z,14.35
2022-11-30T18:06:24.884Z,20.10
2022-11-30T18:08:53.404Z,17.65
2022-11-30T18:11:24.072Z,16.63
2022-11-30T18:13:54.938Z,15.15
2022-11-30T18:16:32.144Z,21.02
2022-11-30T18:19:00.664Z,19.38
2022-11-30T18:21:29.772Z,16.33
2022-11-30T18:23:59.129Z,15.73
2022-11-30T18:26:28.116Z,17.17
2022-11-30T18:28:58.781Z,18.13
2022-11-30T18:31:29.139Z,18.10
2022-11-30T18:33:59.653Z,19.83
2022-11-30T18:36:28.416Z,22.48
2022-11-30T18:38:58.169Z,18.20
2022-11-30T18:41:28.532Z,18.13
2022-11-30T18:43:57.797Z,20.10
2022-11-30T18:46:26.670Z,20.60
2022-11-30T18:48:56.322Z,18.10
2022-11-30T18:51:29.473Z,21.75
2022-11-30T18:54:03.254Z,23.23
2022-11-30T18:56:35.119Z,20.00
2022-11-30T18:59:06.778Z,23.00
2022-11-30T19:01:36.436Z,21.77
2022-11-30T19:04:07.549Z,17.85
2022-11-30T19:06:38.459Z,23.42
2022-11-30T19:09:09.824Z,19.45
2022-11-30T19:11:39.621Z,17.23
2022-11-30T19:14:08.303Z,19.48
2022-11-30T19:16:36.753Z,21.17
2022-11-30T19:19:07.593Z,20.10
2022-11-30T19:21:36.575Z,20.10
2022-11-30T19:24:05.329Z,19.48
2022-11-30T19:26:33.740Z,22.48
2022-11-30T19:29:03.218Z,19.33
2022-11-30T19:31:31.607Z,20.10
2022-11-30T19:33:59.978Z,21.50
2022-11-30T19:36:29.264Z,20.25
2022-11-30T19:38:59.524Z,19.95
2022-11-30T19:41:28.486Z,23.77
2022-11-30T19:44:03.229Z,16.67
2022-11-30T19:46:33.185Z,19.88
2022-11-30T19:49:02.167Z,24.08
2022-11-30T19:51:31.360Z,18.08
2022-11-30T19:54:00.321Z,17.63
2022-11-30T19:56:31.156Z,21.48
2022-11-30T19:59:04.685Z,18.67
2022-11-30T20:01:35.066Z,19.52
2022-11-30T20:04:04.487Z,19.00
2022-11-30T20:06:36.326Z,20.73
2022-11-30T20:09:08.381Z,20.75
2022-11-30T20:11:37.950Z,23.30
2022-11-30T20:14:06.464Z,20.40
2022-11-30T20:16:35.828Z,17.95
2022-11-30T20:19:04.294Z,18.60
2022-11-30T20:21:35.034Z,18.48
2022-11-30T20:24:08.979Z,22.77
2022-11-30T20:26:40.443Z,20.00
2022-11-30T20:29:14.361Z,24.05
2022-11-30T20:31:45.031Z,19.60
2022-11-30T20:34:13.561Z,19.98
2022-11-30T20:36:42.009Z,21.50
2022-11-30T20:39:13.068Z,16.35
2022-11-30T20:41:42.294Z,18.60
2022-11-30T20:44:13.735Z,20.08
2022-11-30T20:46:42.471Z,20.35
2022-11-30T20:49:19.147Z,22.20
2022-11-30T20:51:48.431Z,20.85
2022-11-30T20:54:17.496Z,20.75
2022-11-30T20:56:50.105Z,16.73
2022-11-30T20:59:23.415Z,23.50
2022-11-30T21:01:54.146Z,22.88
2022-11-30T21:04:25.626Z,19.13
2022-11-30T21:06:54.638Z,23.30
2022-11-30T21:09:24.026Z,23.50
2022-11-30T21:11:52.489Z,22.33
2022-11-30T21:14:21.028Z,25.58
2022-11-30T21:16:49.897Z,22.67
2022-11-30T21:19:18.333Z,21.77
2022-11-30T21:21:46.756Z,26.13
2022-11-30T21:24:15.190Z,22.70
2022-11-30T21:26:43.911Z,18.83
2022-11-30T21:29:15.095Z,20.90
2022-11-30T21:31:43.680Z,25.42
2022-11-30T21:34:13.509Z,40.67
2022-11-30T21:36:42.124Z,21.00
2022-11-30T21:39:13.825Z,20.23
2022-11-30T21:41:43.550Z,21.02
2022-11-30T21:44:14.886Z,26.05
2022-11-30T21:46:47.465Z,20.70
2022-11-30T21:49:16.063Z,24.02
2022-11-30T21:51:45.570Z,22.40
2022-11-30T21:54:14.294Z,25.58
2022-11-30T21:56:44.035Z,22.42
2022-11-30T21:59:14.321Z,22.05
2022-11-30T22:01:44.114Z,23.20
2022-11-30T22:04:14.310Z,23.17
2022-11-30T22:06:43.307Z,22.77
2022-11-30T22:09:15.001Z,20.63
2022-11-30T22:11:45.290Z,20.80
2022-11-30T22:14:16.390Z,22.13
2022-11-30T22:16:45.570Z,22.70
2022-11-30T22:19:14.086Z,22.33
2022-11-30T22:21:49.390Z,21.00
2022-11-30T22:24:18.648Z,24.10
2022-11-30T22:26:49.033Z,23.70
2022-11-30T22:29:20.609Z,24.65
2022-11-30T22:31:52.837Z,22.67
2022-11-30T22:36:49.795Z,19.60
2022-11-30T22:39:20.548Z,26.88
2022-11-30T22:41:55.049Z,22.90
2022-11-30T22:44:26.349Z,24.50
2022-11-30T22:46:55.224Z,24.73
2022-11-30T22:49:24.065Z,26.90
2022-11-30T22:51:52.566Z,24.73
2022-11-30T22:54:20.986Z,27.60
2022-11-30T22:56:49.502Z,22.45
2022-11-30T22:59:17.964Z,26.02
2022-11-30T23:01:49.444Z,28.58
2022-11-30T23:04:20.607Z,29.42
2022-11-30T23:06:50.229Z,30.15
2022-11-30T23:09:21.478Z,24.30
2022-11-30T23:11:51.115Z,26.23
2022-11-30T23:14:19.895Z,24.35
2022-11-30T23:16:48.464Z,30.92
2022-11-30T23:19:18.183Z,25.67
2022-11-30T23:21:46.675Z,28.45
2022-11-30T23:24:20.452Z,29.20
2022-11-30T23:26:49.432Z,27.38
2022-11-30T23:29:18.104Z,28.00
2022-11-30T23:31:47.714Z,32.40
2022-11-30T23:34:21.533Z,29.27
2022-11-30T23:36:50.700Z,27.02
2022-11-30T23:39:19.827Z,27.50
2022-11-30T23:41:48.445Z,28.63
2022-11-30T23:44:16.906Z,27.95
2022-11-30T23:46:45.457Z,28.20
2022-11-30T23:49:14.308Z,29.60
2022-11-30T23:51:43.096Z,28.00
2022-11-30T23:54:11.734Z,35.88
2022-11-30T23:56:40.132Z,26.88
2022-11-30T23:59:09.613Z,30.55
